sensor_id;sensor_type;location;lat;lon;timestamp;P1;durP1;ratioP1;P2;durP2;ratioP2
85265;SDS011;75676;49.522;19.724;2024-02-28T00:01:50;27.63;;;10.90;;
85265;SDS011;75676;49.522;19.724;2024-02-28T00:04:19;18.35;;;8.57;;
85265;SDS011;75676;49.522;19.724;2024-02-28T00:06:45;19.85;;;9.85;;
85265;SDS011;75676;49.522;19.724;2024-02-28T00:09:13;19.20;;;9.73;;
85265;SDS011;75676;49.522;19.724;2024-02-28T00:11:43;16.23;;;7.03;;
85265;SDS011;75676;49.522;19.724;2024-02-28T00:14:12;21.13;;;8.65;;
85265;SDS011;75676;49.522;19.724;2024-02-28T00:16:42;19.48;;;8.30;;
85265;SDS011;75676;49.522;19.724;2024-02-28T00:19:09;25.00;;;10.93;;
85265;SDS011;75676;49.522;19.724;2024-02-28T00:21:39;20.33;;;9.18;;
85265;SDS011;75676;49.522;19.724;2024-02-28T00:24:06;20.55;;;9.98;;
85265;SDS011;75676;49.522;19.724;2024-02-28T00:26:32;21.73;;;8.95;;
85265;SDS011;75676;49.522;19.724;2024-02-28T00:28:58;19.92;;;8.77;;
85265;SDS011;75676;49.522;19.724;2024-02-28T00:31:25;21.27;;;8.75;;
85265;SDS011;75676;49.522;19.724;2024-02-28T00:33:51;22.05;;;10.05;;
85265;SDS011;75676;49.522;19.724;2024-02-28T00:36:17;36.97;;;16.85;;
85265;SDS011;75676;49.522;19.724;2024-02-28T00:38:43;31.13;;;13.68;;
85265;SDS011;75676;49.522;19.724;2024-02-28T00:41:09;29.98;;;13.75;;
85265;SDS011;75676;49.522;19.724;2024-02-28T00:43:35;26.77;;;12.65;;
85265;SDS011;75676;49.522;19.724;2024-02-28T00:46:01;32.22;;;14.88;;
85265;SDS011;75676;49.522;19.724;2024-02-28T00:48:28;29.33;;;14.30;;
85265;SDS011;75676;49.522;19.724;2024-02-28T00:50:54;22.50;;;9.95;;
85265;SDS011;75676;49.522;19.724;2024-02-28T00:53:20;16.25;;;8.75;;
85265;SDS011;75676;49.522;19.724;2024-02-28T00:55:46;15.60;;;6.82;;
85265;SDS011;75676;49.522;19.724;2024-02-28T00:58:12;16.92;;;6.82;;
85265;SDS011;75676;49.522;19.724;2024-02-28T01:00:38;21.38;;;8.07;;
85265;SDS011;75676;49.522;19.724;2024-02-28T01:03:04;17.90;;;7.90;;
85265;SDS011;75676;49.522;19.724;2024-02-28T01:05:30;15.40;;;7.38;;
85265;SDS011;75676;49.522;19.724;2024-02-28T01:07:56;13.00;;;7.28;;
85265;SDS011;75676;49.522;19.724;2024-02-28T01:10:22;18.98;;;8.38;;
85265;SDS011;75676;49.522;19.724;2024-02-28T01:12:49;19.50;;;9.13;;
85265;SDS011;75676;49.522;19.724;2024-02-28T01:15:14;19.83;;;8.40;;
85265;SDS011;75676;49.522;19.724;2024-02-28T01:17:40;21.00;;;7.70;;
85265;SDS011;75676;49.522;19.724;2024-02-28T01:20:06;12.82;;;6.38;;
85265;SDS011;75676;49.522;19.724;2024-02-28T01:22:34;13.90;;;7.38;;
85265;SDS011;75676;49.522;19.724;2024-02-28T01:25:00;18.02;;;8.80;;
85265;SDS011;75676;49.522;19.724;2024-02-28T01:27:28;23.30;;;10.88;;
85265;SDS011;75676;49.522;19.724;2024-02-28T01:29:54;22.65;;;10.85;;
85265;SDS011;75676;49.522;19.724;2024-02-28T01:32:20;21.67;;;8.95;;
85265;SDS011;75676;49.522;19.724;2024-02-28T01:34:46;17.23;;;7.25;;
85265;SDS011;75676;49.522;19.724;2024-02-28T01:37:12;18.23;;;9.32;;
85265;SDS011;75676;49.522;19.724;2024-02-28T01:39:38;37.95;;;16.63;;
85265;SDS011;75676;49.522;19.724;2024-02-28T01:42:03;39.25;;;19.05;;
85265;SDS011;75676;49.522;19.724;2024-02-28T01:44:29;51.35;;;22.42;;
85265;SDS011;75676;49.522;19.724;2024-02-28T01:46:56;60.10;;;26.85;;
85265;SDS011;75676;49.522;19.724;2024-02-28T01:49:23;49.20;;;24.15;;
85265;SDS011;75676;49.522;19.724;2024-02-28T01:51:50;54.38;;;24.17;;
85265;SDS011;75676;49.522;19.724;2024-02-28T01:54:19;51.90;;;25.95;;
85265;SDS011;75676;49.522;19.724;2024-02-28T01:56:46;42.70;;;21.33;;
85265;SDS011;75676;49.522;19.724;2024-02-28T01:59:12;44.20;;;20.30;;
85265;SDS011;75676;49.522;19.724;2024-02-28T02:01:39;28.15;;;13.18;;
85265;SDS011;75676;49.522;19.724;2024-02-28T02:04:05;28.13;;;14.05;;
85265;SDS011;75676;49.522;19.724;2024-02-28T02:06:31;28.67;;;15.35;;
85265;SDS011;75676;49.522;19.724;2024-02-28T02:08:59;29.38;;;12.55;;
85265;SDS011;75676;49.522;19.724;2024-02-28T02:11:26;40.33;;;20.25;;
85265;SDS011;75676;49.522;19.724;2024-02-28T02:13:53;47.90;;;23.38;;
85265;SDS011;75676;49.522;19.724;2024-02-28T02:16:19;51.03;;;22.77;;
85265;SDS011;75676;49.522;19.724;2024-02-28T02:18:51;45.92;;;23.35;;
85265;SDS011;75676;49.522;19.724;2024-02-28T02:21:18;46.03;;;21.05;;
85265;SDS011;75676;49.522;19.724;2024-02-28T02:23:45;46.63;;;21.85;;
85265;SDS011;75676;49.522;19.724;2024-02-28T02:26:11;38.38;;;19.58;;
85265;SDS011;75676;49.522;19.724;2024-02-28T02:28:37;47.38;;;20.45;;
85265;SDS011;75676;49.522;19.724;2024-02-28T02:31:02;32.83;;;15.85;;
85265;SDS011;75676;49.522;19.724;2024-02-28T02:33:29;32.80;;;17.25;;
85265;SDS011;75676;49.522;19.724;2024-02-28T02:35:55;33.58;;;14.57;;
85265;SDS011;75676;49.522;19.724;2024-02-28T02:38:20;27.90;;;13.40;;
85265;SDS011;75676;49.522;19.724;2024-02-28T02:40:53;30.58;;;12.73;;
85265;SDS011;75676;49.522;19.724;2024-02-28T02:43:18;31.13;;;16.23;;
85265;SDS011;75676;49.522;19.724;2024-02-28T02:45:44;36.63;;;18.17;;
85265;SDS011;75676;49.522;19.724;2024-02-28T02:48:10;36.08;;;16.48;;
85265;SDS011;75676;49.522;19.724;2024-02-28T02:50:36;27.35;;;14.18;;
85265;SDS011;75676;49.522;19.724;2024-02-28T02:53:02;29.52;;;14.18;;
85265;SDS011;75676;49.522;19.724;2024-02-28T02:55:29;26.38;;;13.07;;
85265;SDS011;75676;49.522;19.724;2024-02-28T02:57:55;21.17;;;10.52;;
85265;SDS011;75676;49.522;19.724;2024-02-28T03:00:21;28.67;;;13.70;;
85265;SDS011;75676;49.522;19.724;2024-02-28T03:02:47;20.23;;;10.13;;
85265;SDS011;75676;49.522;19.724;2024-02-28T03:05:13;19.25;;;9.88;;
85265;SDS011;75676;49.522;19.724;2024-02-28T03:07:39;19.77;;;10.07;;
85265;SDS011;75676;49.522;19.724;2024-02-28T03:10:05;18.40;;;9.05;;
85265;SDS011;75676;49.522;19.724;2024-02-28T03:12:31;11.77;;;6.70;;
85265;SDS011;75676;49.522;19.724;2024-02-28T03:14:57;14.70;;;7.05;;
85265;SDS011;75676;49.522;19.724;2024-02-28T03:17:23;24.17;;;7.40;;
85265;SDS011;75676;49.522;19.724;2024-02-28T03:19:49;11.88;;;6.88;;
85265;SDS011;75676;49.522;19.724;2024-02-28T03:22:15;17.55;;;9.00;;
85265;SDS011;75676;49.522;19.724;2024-02-28T03:24:41;17.17;;;9.30;;
85265;SDS011;75676;49.522;19.724;2024-02-28T03:27:07;22.92;;;10.15;;
85265;SDS011;75676;49.522;19.724;2024-02-28T03:29:33;27.25;;;13.68;;
85265;SDS011;75676;49.522;19.724;2024-02-28T03:31:59;24.65;;;11.38;;
85265;SDS011;75676;49.522;19.724;2024-02-28T03:34:25;20.02;;;10.07;;
85265;SDS011;75676;49.522;19.724;2024-02-28T03:36:50;22.15;;;10.77;;
85265;SDS011;75676;49.522;19.724;2024-02-28T03:39:16;29.35;;;11.77;;
85265;SDS011;75676;49.522;19.724;2024-02-28T03:41:42;22.38;;;11.07;;
85265;SDS011;75676;49.522;19.724;2024-02-28T03:44:08;17.77;;;9.38;;
85265;SDS011;75676;49.522;19.724;2024-02-28T03:46:34;21.05;;;10.05;;
85265;SDS011;75676;49.522;19.724;2024-02-28T03:48:59;15.77;;;7.75;;
85265;SDS011;75676;49.522;19.724;2024-02-28T03:51:25;14.90;;;6.72;;
85265;SDS011;75676;49.522;19.724;2024-02-28T03:53:51;15.95;;;6.90;;
85265;SDS011;75676;49.522;19.724;2024-02-28T03:56:23;13.27;;;5.90;;
85265;SDS011;75676;49.522;19.724;2024-02-28T03:58:52;16.23;;;7.57;;
85265;SDS011;75676;49.522;19.724;2024-02-28T04:01:18;15.30;;;6.43;;
85265;SDS011;75676;49.522;19.724;2024-02-28T04:03:44;12.38;;;6.28;;
85265;SDS011;75676;49.522;19.724;2024-02-28T04:06:11;11.18;;;5.90;;
85265;SDS011;75676;49.522;19.724;2024-02-28T04:08:36;11.60;;;6.30;;
85265;SDS011;75676;49.522;19.724;2024-02-28T04:11:02;16.60;;;6.85;;
85265;SDS011;75676;49.522;19.724;2024-02-28T04:13:28;12.10;;;6.07;;
85265;SDS011;75676;49.522;19.724;2024-02-28T04:15:54;12.32;;;5.82;;
85265;SDS011;75676;49.522;19.724;2024-02-28T04:18:20;12.73;;;6.75;;
85265;SDS011;75676;49.522;19.724;2024-02-28T04:20:46;11.20;;;5.82;;
85265;SDS011;75676;49.522;19.724;2024-02-28T04:23:12;18.30;;;9.05;;
85265;SDS011;75676;49.522;19.724;2024-02-28T04:25:38;14.73;;;7.78;;
85265;SDS011;75676;49.522;19.724;2024-02-28T04:28:06;11.02;;;5.82;;
85265;SDS011;75676;49.522;19.724;2024-02-28T04:30:34;13.40;;;6.03;;
85265;SDS011;75676;49.522;19.724;2024-02-28T04:33:00;13.20;;;6.05;;
85265;SDS011;75676;49.522;19.724;2024-02-28T04:35:25;10.43;;;5.10;;
85265;SDS011;75676;49.522;19.724;2024-02-28T04:37:51;14.23;;;6.28;;
85265;SDS011;75676;49.522;19.724;2024-02-28T04:40:17;9.95;;;5.40;;
85265;SDS011;75676;49.522;19.724;2024-02-28T04:42:42;12.38;;;5.97;;
85265;SDS011;75676;49.522;19.724;2024-02-28T04:45:08;15.07;;;6.07;;
85265;SDS011;75676;49.522;19.724;2024-02-28T04:47:35;10.85;;;5.53;;
85265;SDS011;75676;49.522;19.724;2024-02-28T04:50:02;14.63;;;6.18;;
85265;SDS011;75676;49.522;19.724;2024-02-28T04:52:30;13.60;;;7.05;;
85265;SDS011;75676;49.522;19.724;2024-02-28T04:54:59;13.68;;;6.78;;
85265;SDS011;75676;49.522;19.724;2024-02-28T04:57:25;10.48;;;6.07;;
85265;SDS011;75676;49.522;19.724;2024-02-28T04:59:51;13.98;;;6.10;;
85265;SDS011;75676;49.522;19.724;2024-02-28T05:02:18;12.52;;;5.93;;
85265;SDS011;75676;49.522;19.724;2024-02-28T05:04:44;19.88;;;6.53;;
85265;SDS011;75676;49.522;19.724;2024-02-28T05:07:09;14.55;;;7.28;;
85265;SDS011;75676;49.522;19.724;2024-02-28T05:09:35;14.18;;;6.63;;
85265;SDS011;75676;49.522;19.724;2024-02-28T05:12:01;22.63;;;7.30;;
85265;SDS011;75676;49.522;19.724;2024-02-28T05:14:28;16.05;;;6.63;;
85265;SDS011;75676;49.522;19.724;2024-02-28T05:16:54;17.23;;;7.40;;
85265;SDS011;75676;49.522;19.724;2024-02-28T05:19:20;12.25;;;6.30;;
85265;SDS011;75676;49.522;19.724;2024-02-28T05:21:46;24.58;;;10.82;;
85265;SDS011;75676;49.522;19.724;2024-02-28T05:24:13;17.90;;;8.32;;
85265;SDS011;75676;49.522;19.724;2024-02-28T05:26:39;22.25;;;8.93;;
85265;SDS011;75676;49.522;19.724;2024-02-28T05:29:05;13.75;;;6.50;;
85265;SDS011;75676;49.522;19.724;2024-02-28T05:31:31;15.73;;;7.05;;
85265;SDS011;75676;49.522;19.724;2024-02-28T05:33:58;18.02;;;7.63;;
85265;SDS011;75676;49.522;19.724;2024-02-28T05:36:34;15.57;;;7.50;;
85265;SDS011;75676;49.522;19.724;2024-02-28T05:39:01;14.02;;;6.85;;
85265;SDS011;75676;49.522;19.724;2024-02-28T05:41:27;14.00;;;7.60;;
85265;SDS011;75676;49.522;19.724;2024-02-28T05:43:54;13.38;;;6.22;;
85265;SDS011;75676;49.522;19.724;2024-02-28T05:46:19;20.55;;;9.50;;
85265;SDS011;75676;49.522;19.724;2024-02-28T05:48:47;13.00;;;6.32;;
85265;SDS011;75676;49.522;19.724;2024-02-28T05:51:13;13.10;;;6.43;;
85265;SDS011;75676;49.522;19.724;2024-02-28T05:53:39;14.50;;;7.03;;
85265;SDS011;75676;49.522;19.724;2024-02-28T05:56:06;13.20;;;6.63;;
85265;SDS011;75676;49.522;19.724;2024-02-28T06:01:07;14.00;;;6.80;;
85265;SDS011;75676;49.522;19.724;2024-02-28T06:03:33;14.02;;;6.20;;
85265;SDS011;75676;49.522;19.724;2024-02-28T06:06:00;15.57;;;6.18;;
85265;SDS011;75676;49.522;19.724;2024-02-28T06:08:26;14.65;;;5.82;;
85265;SDS011;75676;49.522;19.724;2024-02-28T06:10:51;13.45;;;6.55;;
85265;SDS011;75676;49.522;19.724;2024-02-28T06:13:18;19.65;;;9.55;;
85265;SDS011;75676;49.522;19.724;2024-02-28T06:15:46;23.75;;;12.60;;
85265;SDS011;75676;49.522;19.724;2024-02-28T06:18:12;35.60;;;17.88;;
85265;SDS011;75676;49.522;19.724;2024-02-28T06:20:38;28.17;;;14.07;;
85265;SDS011;75676;49.522;19.724;2024-02-28T06:23:04;27.52;;;12.63;;
85265;SDS011;75676;49.522;19.724;2024-02-28T06:25:30;35.17;;;17.73;;
85265;SDS011;75676;49.522;19.724;2024-02-28T06:27:59;34.20;;;16.15;;
85265;SDS011;75676;49.522;19.724;2024-02-28T06:30:27;28.35;;;14.65;;
85265;SDS011;75676;49.522;19.724;2024-02-28T06:32:53;37.55;;;15.45;;
85265;SDS011;75676;49.522;19.724;2024-02-28T06:35:19;36.47;;;19.67;;
85265;SDS011;75676;49.522;19.724;2024-02-28T06:37:45;41.30;;;19.02;;
85265;SDS011;75676;49.522;19.724;2024-02-28T06:40:15;45.88;;;22.25;;
85265;SDS011;75676;49.522;19.724;2024-02-28T06:42:41;54.15;;;25.85;;
85265;SDS011;75676;49.522;19.724;2024-02-28T06:45:07;51.08;;;25.23;;
85265;SDS011;75676;49.522;19.724;2024-02-28T06:47:34;60.63;;;28.52;;
85265;SDS011;75676;49.522;19.724;2024-02-28T06:50:02;54.65;;;26.48;;
85265;SDS011;75676;49.522;19.724;2024-02-28T06:52:28;55.92;;;24.58;;
85265;SDS011;75676;49.522;19.724;2024-02-28T06:54:54;67.43;;;30.35;;
85265;SDS011;75676;49.522;19.724;2024-02-28T06:57:20;66.05;;;31.27;;
85265;SDS011;75676;49.522;19.724;2024-02-28T06:59:46;70.10;;;33.70;;
85265;SDS011;75676;49.522;19.724;2024-02-28T07:02:11;63.83;;;32.90;;
85265;SDS011;75676;49.522;19.724;2024-02-28T07:04:42;72.25;;;31.85;;
85265;SDS011;75676;49.522;19.724;2024-02-28T07:07:08;70.57;;;33.28;;
85265;SDS011;75676;49.522;19.724;2024-02-28T07:09:34;67.60;;;30.63;;
85265;SDS011;75676;49.522;19.724;2024-02-28T07:12:00;61.25;;;29.77;;
85265;SDS011;75676;49.522;19.724;2024-02-28T07:14:29;62.55;;;29.42;;
85265;SDS011;75676;49.522;19.724;2024-02-28T07:16:55;54.38;;;24.83;;
85265;SDS011;75676;49.522;19.724;2024-02-28T07:19:20;51.63;;;25.67;;
85265;SDS011;75676;49.522;19.724;2024-02-28T07:21:47;57.67;;;25.85;;
85265;SDS011;75676;49.522;19.724;2024-02-28T07:24:12;52.35;;;26.45;;
85265;SDS011;75676;49.522;19.724;2024-02-28T07:26:38;55.95;;;27.90;;
85265;SDS011;75676;49.522;19.724;2024-02-28T07:29:06;52.17;;;27.15;;
85265;SDS011;75676;49.522;19.724;2024-02-28T07:31:32;53.08;;;27.92;;
85265;SDS011;75676;49.522;19.724;2024-02-28T07:33:58;52.97;;;27.63;;
85265;SDS011;75676;49.522;19.724;2024-02-28T07:36:23;56.08;;;26.38;;
85265;SDS011;75676;49.522;19.724;2024-02-28T07:38:49;57.88;;;28.17;;
85265;SDS011;75676;49.522;19.724;2024-02-28T07:41:15;54.97;;;26.27;;
85265;SDS011;75676;49.522;19.724;2024-02-28T07:43:44;59.25;;;27.70;;
85265;SDS011;75676;49.522;19.724;2024-02-28T07:46:10;59.65;;;26.45;;
85265;SDS011;75676;49.522;19.724;2024-02-28T07:48:36;66.05;;;31.75;;
85265;SDS011;75676;49.522;19.724;2024-02-28T07:51:08;53.05;;;27.02;;
85265;SDS011;75676;49.522;19.724;2024-02-28T07:53:35;63.05;;;30.17;;
85265;SDS011;75676;49.522;19.724;2024-02-28T07:56:00;56.22;;;27.48;;
85265;SDS011;75676;49.522;19.724;2024-02-28T07:58:27;51.47;;;27.05;;
85265;SDS011;75676;49.522;19.724;2024-02-28T08:00:52;55.90;;;25.80;;
85265;SDS011;75676;49.522;19.724;2024-02-28T08:03:18;63.42;;;29.38;;
85265;SDS011;75676;49.522;19.724;2024-02-28T08:05:44;62.03;;;29.02;;
85265;SDS011;75676;49.522;19.724;2024-02-28T08:08:10;72.57;;;35.03;;
85265;SDS011;75676;49.522;19.724;2024-02-28T08:10:37;62.05;;;31.85;;
85265;SDS011;75676;49.522;19.724;2024-02-28T08:13:03;57.45;;;30.95;;
85265;SDS011;75676;49.522;19.724;2024-02-28T08:15:30;48.63;;;24.48;;
85265;SDS011;75676;49.522;19.724;2024-02-28T08:17:56;43.50;;;23.38;;
85265;SDS011;75676;49.522;19.724;2024-02-28T08:20:22;44.17;;;22.02;;
85265;SDS011;75676;49.522;19.724;2024-02-28T08:22:48;54.95;;;22.38;;
85265;SDS011;75676;49.522;19.724;2024-02-28T08:25:14;40.60;;;20.63;;
85265;SDS011;75676;49.522;19.724;2024-02-28T08:27:39;55.50;;;27.05;;
85265;SDS011;75676;49.522;19.724;2024-02-28T08:30:05;57.63;;;31.45;;
85265;SDS011;75676;49.522;19.724;2024-02-28T08:32:32;64.22;;;33.90;;
85265;SDS011;75676;49.522;19.724;2024-02-28T08:34:58;67.43;;;32.63;;
85265;SDS011;75676;49.522;19.724;2024-02-28T08:37:25;62.00;;;32.50;;
85265;SDS011;75676;49.522;19.724;2024-02-28T08:39:52;59.30;;;32.75;;
85265;SDS011;75676;49.522;19.724;2024-02-28T08:42:22;55.88;;;28.77;;
85265;SDS011;75676;49.522;19.724;2024-02-28T08:44:47;66.32;;;30.90;;
85265;SDS011;75676;49.522;19.724;2024-02-28T08:47:13;58.78;;;31.30;;
85265;SDS011;75676;49.522;19.724;2024-02-28T08:49:39;60.83;;;32.22;;
85265;SDS011;75676;49.522;19.724;2024-02-28T08:52:05;63.08;;;34.33;;
85265;SDS011;75676;49.522;19.724;2024-02-28T08:54:30;62.97;;;35.25;;
85265;SDS011;75676;49.522;19.724;2024-02-28T08:56:59;69.90;;;35.80;;
85265;SDS011;75676;49.522;19.724;2024-02-28T08:59:25;72.68;;;37.28;;
85265;SDS011;75676;49.522;19.724;2024-02-28T09:01:51;73.30;;;40.72;;
85265;SDS011;75676;49.522;19.724;2024-02-28T09:04:16;82.05;;;42.28;;
85265;SDS011;75676;49.522;19.724;2024-02-28T09:06:42;79.50;;;41.97;;
85265;SDS011;75676;49.522;19.724;2024-02-28T09:09:08;91.72;;;48.80;;
85265;SDS011;75676;49.522;19.724;2024-02-28T09:11:34;78.10;;;42.60;;
85265;SDS011;75676;49.522;19.724;2024-02-28T09:14:00;50.45;;;27.83;;
85265;SDS011;75676;49.522;19.724;2024-02-28T09:16:26;58.90;;;31.33;;
85265;SDS011;75676;49.522;19.724;2024-02-28T09:18:51;58.47;;;29.17;;
85265;SDS011;75676;49.522;19.724;2024-02-28T09:21:17;58.10;;;30.00;;
85265;SDS011;75676;49.522;19.724;2024-02-28T09:23:43;51.65;;;27.58;;
85265;SDS011;75676;49.522;19.724;2024-02-28T09:26:08;45.85;;;24.90;;
85265;SDS011;75676;49.522;19.724;2024-02-28T09:28:35;45.00;;;22.33;;
85265;SDS011;75676;49.522;19.724;2024-02-28T09:31:01;46.88;;;23.08;;
85265;SDS011;75676;49.522;19.724;2024-02-28T09:33:27;38.67;;;17.85;;
85265;SDS011;75676;49.522;19.724;2024-02-28T09:35:52;49.58;;;22.92;;
85265;SDS011;75676;49.522;19.724;2024-02-28T09:38:18;46.90;;;20.27;;
85265;SDS011;75676;49.522;19.724;2024-02-28T09:40:47;39.88;;;19.10;;
85265;SDS011;75676;49.522;19.724;2024-02-28T09:43:24;34.75;;;16.90;;
85265;SDS011;75676;49.522;19.724;2024-02-28T09:45:56;32.58;;;15.52;;
85265;SDS011;75676;49.522;19.724;2024-02-28T09:48:26;42.75;;;19.52;;
85265;SDS011;75676;49.522;19.724;2024-02-28T09:50:54;46.47;;;21.15;;
85265;SDS011;75676;49.522;19.724;2024-02-28T09:53:21;42.22;;;21.35;;
85265;SDS011;75676;49.522;19.724;2024-02-28T09:55:47;41.20;;;19.05;;
85265;SDS011;75676;49.522;19.724;2024-02-28T09:58:17;47.80;;;20.85;;
85265;SDS011;75676;49.522;19.724;2024-02-28T10:00:43;42.25;;;22.05;;
85265;SDS011;75676;49.522;19.724;2024-02-28T10:03:17;48.85;;;21.67;;
85265;SDS011;75676;49.522;19.724;2024-02-28T10:05:44;41.60;;;21.50;;
85265;SDS011;75676;49.522;19.724;2024-02-28T10:08:13;45.80;;;21.30;;
85265;SDS011;75676;49.522;19.724;2024-02-28T10:10:48;40.28;;;20.05;;
85265;SDS011;75676;49.522;19.724;2024-02-28T10:13:17;40.85;;;18.20;;
85265;SDS011;75676;49.522;19.724;2024-02-28T10:15:44;41.60;;;20.05;;
85265;SDS011;75676;49.522;19.724;2024-02-28T10:18:10;46.88;;;21.23;;
85265;SDS011;75676;49.522;19.724;2024-02-28T10:20:36;42.92;;;21.05;;
85265;SDS011;75676;49.522;19.724;2024-02-28T10:23:05;42.92;;;21.02;;
85265;SDS011;75676;49.522;19.724;2024-02-28T10:25:41;46.65;;;22.52;;
85265;SDS011;75676;49.522;19.724;2024-02-28T10:28:11;45.67;;;22.20;;
85265;SDS011;75676;49.522;19.724;2024-02-28T10:30:42;45.10;;;22.30;;
85265;SDS011;75676;49.522;19.724;2024-02-28T10:35:39;48.55;;;26.70;;
85265;SDS011;75676;49.522;19.724;2024-02-28T10:38:12;45.13;;;21.30;;
85265;SDS011;75676;49.522;19.724;2024-02-28T10:40:41;44.10;;;20.52;;
85265;SDS011;75676;49.522;19.724;2024-02-28T10:43:08;42.22;;;20.33;;
85265;SDS011;75676;49.522;19.724;2024-02-28T10:45:38;35.83;;;18.77;;
85265;SDS011;75676;49.522;19.724;2024-02-28T10:48:05;43.33;;;20.30;;
85265;SDS011;75676;49.522;19.724;2024-02-28T10:50:31;43.45;;;20.88;;
85265;SDS011;75676;49.522;19.724;2024-02-28T10:53:01;39.95;;;19.45;;
85265;SDS011;75676;49.522;19.724;2024-02-28T10:55:40;38.65;;;19.48;;
85265;SDS011;75676;49.522;19.724;2024-02-28T10:58:07;38.90;;;18.67;;
85265;SDS011;75676;49.522;19.724;2024-02-28T11:00:37;45.20;;;20.98;;
85265;SDS011;75676;49.522;19.724;2024-02-28T11:03:06;33.70;;;19.02;;
85265;SDS011;75676;49.522;19.724;2024-02-28T11:05:41;38.90;;;17.85;;
85265;SDS011;75676;49.522;19.724;2024-02-28T11:08:08;40.47;;;17.17;;
85265;SDS011;75676;49.522;19.724;2024-02-28T11:10:47;40.00;;;19.27;;
85265;SDS011;75676;49.522;19.724;2024-02-28T11:13:24;37.33;;;16.75;;
85265;SDS011;75676;49.522;19.724;2024-02-28T11:15:51;39.88;;;18.35;;
85265;SDS011;75676;49.522;19.724;2024-02-28T11:18:18;32.22;;;17.48;;
85265;SDS011;75676;49.522;19.724;2024-02-28T11:20:44;28.40;;;14.95;;
85265;SDS011;75676;49.522;19.724;2024-02-28T11:23:14;70.80;;;15.65;;
85265;SDS011;75676;49.522;19.724;2024-02-28T11:25:43;23.48;;;11.15;;
85265;SDS011;75676;49.522;19.724;2024-02-28T11:28:09;24.95;;;11.63;;
85265;SDS011;75676;49.522;19.724;2024-02-28T11:30:35;29.40;;;14.07;;
85265;SDS011;75676;49.522;19.724;2024-02-28T11:33:01;24.67;;;12.95;;
85265;SDS011;75676;49.522;19.724;2024-02-28T11:35:27;18.83;;;10.68;;
85265;SDS011;75676;49.522;19.724;2024-02-28T11:37:56;30.63;;;13.55;;
85265;SDS011;75676;49.522;19.724;2024-02-28T11:40:23;21.50;;;10.95;;
85265;SDS011;75676;49.522;19.724;2024-02-28T11:42:51;20.95;;;10.60;;
85265;SDS011;75676;49.522;19.724;2024-02-28T11:45:20;20.70;;;10.77;;
85265;SDS011;75676;49.522;19.724;2024-02-28T11:47:46;35.20;;;13.18;;
85265;SDS011;75676;49.522;19.724;2024-02-28T11:50:12;48.78;;;17.83;;
85265;SDS011;75676;49.522;19.724;2024-02-28T11:52:40;38.30;;;14.55;;
85265;SDS011;75676;49.522;19.724;2024-02-28T11:55:06;55.55;;;21.13;;
85265;SDS011;75676;49.522;19.724;2024-02-28T11:57:32;24.85;;;10.68;;
85265;SDS011;75676;49.522;19.724;2024-02-28T12:00:02;23.77;;;10.18;;
85265;SDS011;75676;49.522;19.724;2024-02-28T12:02:29;28.63;;;12.32;;
85265;SDS011;75676;49.522;19.724;2024-02-28T12:04:59;26.42;;;10.25;;
85265;SDS011;75676;49.522;19.724;2024-02-28T12:07:26;18.65;;;9.00;;
85265;SDS011;75676;49.522;19.724;2024-02-28T12:09:53;17.23;;;8.63;;
85265;SDS011;75676;49.522;19.724;2024-02-28T12:12:19;21.35;;;9.27;;
85265;SDS011;75676;49.522;19.724;2024-02-28T12:14:47;17.23;;;8.93;;
85265;SDS011;75676;49.522;19.724;2024-02-28T12:17:15;20.90;;;9.68;;
85265;SDS011;75676;49.522;19.724;2024-02-28T12:19:41;16.83;;;9.45;;
85265;SDS011;75676;49.522;19.724;2024-02-28T12:22:08;20.85;;;8.55;;
85265;SDS011;75676;49.522;19.724;2024-02-28T12:24:34;19.63;;;8.10;;
85265;SDS011;75676;49.522;19.724;2024-02-28T12:27:00;16.02;;;9.15;;
85265;SDS011;75676;49.522;19.724;2024-02-28T12:29:26;21.88;;;9.43;;
85265;SDS011;75676;49.522;19.724;2024-02-28T12:31:52;20.38;;;8.77;;
85265;SDS011;75676;49.522;19.724;2024-02-28T12:34:18;18.40;;;8.48;;
85265;SDS011;75676;49.522;19.724;2024-02-28T12:36:44;21.20;;;8.77;;
85265;SDS011;75676;49.522;19.724;2024-02-28T12:39:09;16.20;;;9.15;;
85265;SDS011;75676;49.522;19.724;2024-02-28T12:41:38;20.27;;;8.15;;
85265;SDS011;75676;49.522;19.724;2024-02-28T12:44:07;15.70;;;7.50;;
85265;SDS011;75676;49.522;19.724;2024-02-28T12:46:34;14.00;;;7.75;;
85265;SDS011;75676;49.522;19.724;2024-02-28T12:49:00;16.38;;;7.82;;
85265;SDS011;75676;49.522;19.724;2024-02-28T12:51:37;16.08;;;7.35;;
85265;SDS011;75676;49.522;19.724;2024-02-28T12:54:08;19.92;;;7.97;;
85265;SDS011;75676;49.522;19.724;2024-02-28T12:56:37;26.05;;;11.10;;
85265;SDS011;75676;49.522;19.724;2024-02-28T12:59:04;23.23;;;9.68;;
85265;SDS011;75676;49.522;19.724;2024-02-28T13:01:34;20.92;;;11.40;;
85265;SDS011;75676;49.522;19.724;2024-02-28T13:04:00;22.63;;;11.00;;
85265;SDS011;75676;49.522;19.724;2024-02-28T13:06:25;16.70;;;7.47;;
85265;SDS011;75676;49.522;19.724;2024-02-28T13:08:53;25.45;;;10.95;;
85265;SDS011;75676;49.522;19.724;2024-02-28T13:11:20;25.80;;;12.32;;
85265;SDS011;75676;49.522;19.724;2024-02-28T13:13:50;18.17;;;9.30;;
85265;SDS011;75676;49.522;19.724;2024-02-28T13:16:17;14.82;;;9.05;;
85265;SDS011;75676;49.522;19.724;2024-02-28T13:18:43;17.35;;;7.53;;
85265;SDS011;75676;49.522;19.724;2024-02-28T13:21:09;16.50;;;7.90;;
85265;SDS011;75676;49.522;19.724;2024-02-28T13:23:36;15.00;;;8.38;;
85265;SDS011;75676;49.522;19.724;2024-02-28T13:26:05;21.05;;;7.65;;
85265;SDS011;75676;49.522;19.724;2024-02-28T13:28:32;17.13;;;7.97;;
85265;SDS011;75676;49.522;19.724;2024-02-28T13:30:59;17.80;;;8.48;;
85265;SDS011;75676;49.522;19.724;2024-02-28T13:33:25;19.95;;;8.73;;
85265;SDS011;75676;49.522;19.724;2024-02-28T13:35:52;17.73;;;9.27;;
85265;SDS011;75676;49.522;19.724;2024-02-28T13:38:18;16.73;;;9.65;;
85265;SDS011;75676;49.522;19.724;2024-02-28T13:40:45;20.85;;;13.05;;
85265;SDS011;75676;49.522;19.724;2024-02-28T13:43:12;20.50;;;9.20;;
85265;SDS011;75676;49.522;19.724;2024-02-28T13:45:38;18.05;;;9.63;;
85265;SDS011;75676;49.522;19.724;2024-02-28T13:48:17;17.85;;;9.55;;
85265;SDS011;75676;49.522;19.724;2024-02-28T13:50:46;16.75;;;9.70;;
85265;SDS011;75676;49.522;19.724;2024-02-28T13:53:13;16.80;;;7.55;;
85265;SDS011;75676;49.522;19.724;2024-02-28T13:55:40;24.63;;;8.75;;
85265;SDS011;75676;49.522;19.724;2024-02-28T13:58:08;17.65;;;8.88;;
85265;SDS011;75676;49.522;19.724;2024-02-28T14:00:36;22.98;;;10.40;;
85265;SDS011;75676;49.522;19.724;2024-02-28T14:03:02;17.55;;;12.00;;
85265;SDS011;75676;49.522;19.724;2024-02-28T14:05:29;17.35;;;11.13;;
85265;SDS011;75676;49.522;19.724;2024-02-28T14:07:55;19.65;;;8.82;;
85265;SDS011;75676;49.522;19.724;2024-02-28T14:10:22;17.63;;;10.40;;
85265;SDS011;75676;49.522;19.724;2024-02-28T14:12:49;17.58;;;9.77;;
85265;SDS011;75676;49.522;19.724;2024-02-28T14:15:20;25.48;;;8.90;;
85265;SDS011;75676;49.522;19.724;2024-02-28T14:17:47;26.55;;;13.48;;